Time;durP1;ratioP1;P1;durP2;ratioP2;P2;SDS_P1;SDS_P2;PMS_P1;PMS_P2;Temp;Humidity;BMP_temperature;BMP_pressure;BME280_temperature;BME280_humidity;BME280_pressure;Samples;Min_cycle;Max_cycle;Signal;HPM_P1;HPM_P2
2022/12/07 00:00:42;;;;;;;12.38;11.77;;;2.30;99.90;;;;;;5016425;28;20036;-75
2022/12/07 00:03:07;;;;;;;10.52;10.13;;;2.30;99.90;;;;;;5032942;28;20047;-75
2022/12/07 00:05:33;;;;;;;11.25;10.85;;;2.30;99.90;;;;;;5018256;28;20506;-74
2022/12/07 00:07:58;;;;;;;9.75;9.45;;;2.30;99.90;;;;;;5020205;28;20030;-75
2022/12/07 00:10:24;;;;;;;10.02;9.63;;;2.30;99.90;;;;;;5025090;28;20026;-75
2022/12/07 00:12:50;;;;;;;9.20;8.90;;;2.30;99.90;;;;;;5013037;28;20041;-74
2022/12/07 00:15:15;;;;;;;9.70;9.40;;;2.30;99.90;;;;;;5017483;28;20034;-74
2022/12/07 00:17:41;;;;;;;9.05;8.75;;;2.30;99.90;;;;;;5021282;28;20030;-74
2022/12/07 00:20:07;;;;;;;10.80;10.40;;;2.30;99.90;;;;;;5026306;28;20792;-75
2022/12/07 00:22:32;;;;;;;10.32;9.93;;;2.20;99.90;;;;;;5022288;28;20025;-76
2022/12/07 00:24:58;;;;;;;10.52;10.13;;;2.30;99.90;;;;;;5019121;28;20079;-75
2022/12/07 00:27:23;;;;;;;9.13;8.73;;;2.30;99.90;;;;;;5021457;28;20634;-75
2022/12/07 00:29:49;;;;;;;11.57;10.98;;;2.30;99.90;;;;;;5012709;28;20238;-75
2022/12/07 00:32:14;;;;;;;10.57;10.13;;;2.30;99.90;;;;;;5021779;28;20127;-74
2022/12/07 00:34:40;;;;;;;9.57;8.98;;;2.20;99.90;;;;;;5028465;28;20034;-75
2022/12/07 00:37:06;;;;;;;10.50;10.10;;;2.20;99.90;;;;;;5022695;28;20569;-75
2022/12/07 00:39:31;;;;;;;9.63;9.32;;;2.20;99.90;;;;;;5017793;28;20487;-74
2022/12/07 00:41:57;;;;;;;11.15;10.50;;;2.20;99.90;;;;;;5022219;28;20041;-75
2022/12/07 00:44:22;;;;;;;11.13;10.73;;;2.20;99.90;;;;;;5025789;28;20502;-75
2022/12/07 00:46:48;;;;;;;10.07;9.45;;;2.30;99.90;;;;;;5020459;28;20040;-75
2022/12/07 00:49:13;;;;;;;10.07;9.68;;;2.20;99.90;;;;;;5018773;28;20036;-75
2022/12/07 00:51:39;;;;;;;12.02;11.50;;;2.20;99.90;;;;;;5022686;28;20034;-75
2022/12/07 00:54:04;;;;;;;9.10;8.75;;;2.20;99.90;;;;;;5012306;28;20040;-75
2022/12/07 00:56:30;;;;;;;11.85;11.35;;;2.20;99.90;;;;;;5023613;28;20041;-75
2022/12/07 00:58:58;;;;;;;10.35;9.88;;;2.10;99.90;;;;;;5012516;28;20550;-75
2022/12/07 01:01:27;;;;;;;10.15;9.75;;;2.10;99.90;;;;;;5024217;28;20383;-74
2022/12/07 01:03:53;;;;;;;9.85;9.55;;;2.20;99.90;;;;;;5013159;28;20026;-74
2022/12/07 01:06:20;;;;;;;10.10;9.73;;;2.10;99.90;;;;;;5023040;28;20022;-75
2022/12/07 01:08:45;;;;;;;9.45;9.15;;;2.20;99.90;;;;;;5011473;28;20022;-75
2022/12/07 01:11:19;;;;;;;8.48;8.07;;;2.20;99.90;;;;;;5024279;28;20052;-74
2022/12/07 01:13:45;;;;;;;10.60;9.98;;;2.20;99.90;;;;;;5017203;28;20395;-74
2022/12/07 01:16:14;;;;;;;12.48;11.98;;;2.30;99.90;;;;;;5018703;28;20030;-74
2022/12/07 01:18:40;;;;;;;10.68;10.13;;;2.30;99.90;;;;;;4992402;28;20492;-74
2022/12/07 01:21:17;;;;;;;10.93;10.48;;;2.30;99.90;;;;;;5019327;28;20028;-74
2022/12/07 01:23:43;;;;;;;8.80;8.50;;;2.20;99.90;;;;;;5021716;28;20021;-74
2022/12/07 01:26:19;;;;;;;10.70;10.30;;;2.30;99.90;;;;;;5024957;28;20026;-74
2022/12/07 01:28:45;;;;;;;8.98;8.68;;;2.20;99.90;;;;;;5022368;28;20050;-74
2022/12/07 01:31:14;;;;;;;10.55;10.15;;;2.10;99.90;;;;;;5025101;28;20091;-73
2022/12/07 01:33:42;;;;;;;9.07;8.77;;;2.10;99.90;;;;;;5030762;28;20033;-73
2022/12/07 01:36:23;;;;;;;9.57;9.27;;;2.20;99.90;;;;;;5021707;28;20026;-73
2022/12/07 01:38:52;;;;;;;9.88;9.55;;;2.20;99.90;;;;;;5024957;28;20099;-74
2022/12/07 01:41:18;;;;;;;11.75;11.25;;;2.20;99.90;;;;;;5036672;28;20030;-73
2022/12/07 01:44:22;;;;;;;9.82;9.52;;;2.20;99.90;;;;;;5025871;28;20018;-73
2022/12/07 01:46:54;;;;;;;9.77;9.48;;;2.20;99.90;;;;;;5035269;28;20021;-73
2022/12/07 01:49:29;;;;;;;11.52;11.13;;;2.20;99.90;;;;;;5042058;28;20047;-73
2022/12/07 01:52:18;;;;;;;11.63;11.23;;;2.20;99.90;;;;;;5024497;28;20030;-74
2022/12/07 01:54:45;;;;;;;10.93;10.52;;;2.20;99.90;;;;;;5016400;28;20021;-74
2022/12/07 01:57:13;;;;;;;9.98;9.65;;;2.20;99.90;;;;;;5015925;28;20436;-74
2022/12/07 01:59:39;;;;;;;10.32;9.82;;;2.20;99.90;;;;;;5016010;28;20021;-74
2022/12/07 02:02:13;;;;;;;10.05;9.73;;;2.10;99.90;;;;;;5015752;28;20037;-74
2022/12/07 02:04:39;;;;;;;11.00;10.60;;;2.10;99.90;;;;;;5027110;28;20021;-74
2022/12/07 02:07:05;;;;;;;9.90;9.60;;;2.10;99.90;;;;;;5021302;28;20024;-75
2022/12/07 02:09:30;;;;;;;11.18;10.77;;;2.10;99.90;;;;;;5024419;28;20030;-74
2022/12/07 02:11:57;;;;;;;11.32;10.93;;;2.20;99.90;;;;;;5034098;28;20029;-74
2022/12/07 02:14:22;;;;;;;10.30;9.90;;;2.20;99.90;;;;;;5024206;28;20484;-74
2022/12/07 02:17:11;;;;;;;11.50;11.10;;;2.20;99.90;;;;;;5015469;28;20049;-74
2022/12/07 02:20:08;;;;;;;9.90;9.60;;;2.10;99.90;;;;;;5016492;28;20104;-74
2022/12/07 02:23:18;;;;;;;9.95;9.65;;;2.00;99.90;;;;;;5022777;28;20464;-75
2022/12/07 02:26:05;;;;;;;10.23;9.82;;;2.00;99.90;;;;;;5013216;28;20403;-75
2022/12/07 02:28:35;;;;;;;10.43;10.02;;;2.00;99.90;;;;;;5011111;28;20026;-74
2022/12/07 02:31:20;;;;;;;10.25;9.88;;;2.00;99.90;;;;;;5032913;28;20479;-75
2022/12/07 02:33:54;;;;;;;13.85;13.25;;;2.10;99.90;;;;;;5025950;28;20029;-75
2022/12/07 02:36:29;;;;;;;11.45;11.05;;;2.00;99.90;;;;;;5016087;28;20370;-75
2022/12/07 02:39:00;;;;;;;10.10;9.77;;;2.00;99.90;;;;;;5027676;28;20025;-75
2022/12/07 02:41:31;;;;;;;10.73;10.32;;;2.10;99.90;;;;;;5027664;28;20021;-75
2022/12/07 02:44:01;;;;;;;10.10;9.73;;;2.10;99.90;;;;;;5027979;28;20462;-75
2022/12/07 02:46:37;;;;;;;9.50;9.20;;;2.10;99.90;;;;;;5022960;28;20022;-74
2022/12/07 02:49:04;;;;;;;10.25;9.85;;;2.10;99.90;;;;;;5020967;28;20031;-74
2022/12/07 02:51:31;;;;;;;11.32;10.93;;;2.10;99.90;;;;;;5023932;28;20044;-74
2022/12/07 02:53:57;;;;;;;9.63;9.32;;;2.10;99.90;;;;;;5027947;28;20546;-75
2022/12/07 02:56:30;;;;;;;10.35;9.95;;;2.10;99.90;;;;;;5022730;28;20037;-75
2022/12/07 02:59:37;;;;;;;9.95;9.63;;;2.00;99.90;;;;;;5030011;28;20037;-75
2022/12/07 03:02:40;;;;;;;11.07;10.67;;;1.80;99.90;;;;;;5026347;28;20026;-74
2022/12/07 03:05:47;;;;;;;13.52;12.63;;;1.80;99.90;;;;;;5004781;28;20279;-74
2022/12/07 03:08:22;;;;;;;9.65;9.35;;;1.80;99.90;;;;;;5027132;28;20482;-75
2022/12/07 03:10:54;;;;;;;13.32;12.65;;;1.70;99.90;;;;;;5021383;28;20029;-74
2022/12/07 03:13:40;;;;;;;8.38;8.07;;;1.60;99.90;;;;;;5019210;28;20112;-75
2022/12/07 03:16:26;;;;;;;;;;;1.60;99.90;;;;;;5022284;28;20038;-75
2022/12/07 03:18:56;;;;;;;10.75;10.35;;;1.60;99.90;;;;;;5025921;28;19928;-74
2022/12/07 03:21:31;;;;;;;9.45;9.15;;;1.70;99.90;;;;;;5013926;28;20491;-74
2022/12/07 03:23:59;;;;;;;9.32;9.02;;;1.80;99.90;;;;;;5012723;28;20029;-75
2022/12/07 03:26:34;;;;;;;10.23;9.82;;;1.80;99.90;;;;;;5017007;28;20475;-75
2022/12/07 03:29:05;;;;;;;10.32;9.93;;;1.80;99.90;;;;;;5022450;28;20034;-75
2022/12/07 03:31:34;;;;;;;9.18;8.88;;;1.80;99.90;;;;;;5031967;28;20025;-75
2022/12/07 03:34:26;;;;;;;10.27;9.88;;;1.80;99.90;;;;;;5020325;28;20388;-75
2022/12/07 03:37:10;;;;;;;8.30;8.00;;;1.80;99.90;;;;;;4999085;28;20033;-75
2022/12/07 03:39:46;;;;;;;8.90;8.60;;;1.80;99.90;;;;;;5013673;28;20033;-75
2022/12/07 03:42:12;;;;;;;9.10;8.80;;;1.70;99.90;;;;;;5025261;28;20102;-75
2022/12/07 03:44:38;;;;;;;9.52;9.23;;;1.70;99.90;;;;;;5019759;28;20498;-74
2022/12/07 03:47:53;;;;;;;9.38;9.07;;;1.70;99.90;;;;;;5020125;28;20032;-75
2022/12/07 03:50:31;;;;;;;10.75;10.35;;;1.70;99.90;;;;;;4989265;28;20476;-75
2022/12/07 03:53:26;;;;;;;9.52;9.23;;;1.70;99.90;;;;;;5001978;28;20392;-75
2022/12/07 03:55:53;;;;;;;9.77;9.48;;;1.80;99.90;;;;;;5013206;28;20029;-75
2022/12/07 03:58:21;;;;;;;12.25;11.75;;;1.80;99.90;;;;;;5013145;28;20026;-75
2022/12/07 04:00:48;;;;;;;9.80;9.48;;;1.80;99.90;;;;;;5025729;28;20398;-75
2022/12/07 04:03:14;;;;;;;11.48;11.07;;;1.70;99.90;;;;;;5013205;28;20140;-75
2022/12/07 04:05:40;;;;;;;8.75;8.45;;;1.70;99.90;;;;;;5025141;28;20698;-75
2022/12/07 04:08:05;;;;;;;11.38;10.98;;;1.80;99.90;;;;;;5048050;28;20076;-75
2022/12/07 04:10:31;;;;;;;9.57;9.27;;;1.80;99.90;;;;;;5013377;28;20034;-74
2022/12/07 04:12:56;;;;;;;10.13;9.77;;;1.90;99.90;;;;;;5013075;28;20034;-74
2022/12/07 04:15:22;;;;;;;9.68;9.38;;;1.90;99.90;;;;;;5013160;28;20062;-74
2022/12/07 04:17:48;;;;;;;11.23;10.73;;;1.80;99.90;;;;;;5011449;28;20500;-74
2022/12/07 04:20:14;;;;;;;11.15;10.75;;;1.80;99.90;;;;;;5030946;28;20021;-74
2022/12/07 04:22:39;;;;;;;9.93;9.52;;;1.60;99.90;;;;;;5018694;28;20022;-75
2022/12/07 04:25:06;;;;;;;11.45;11.05;;;1.60;99.90;;;;;;5024690;28;20064;-75
2022/12/07 04:27:31;;;;;;;10.10;9.75;;;1.60;99.90;;;;;;5025301;28;20032;-75
2022/12/07 04:29:57;;;;;;;10.90;10.50;;;1.70;99.90;;;;;;5019109;28;20018;-74
2022/12/07 04:32:23;;;;;;;8.95;8.65;;;1.60;99.90;;;;;;5020106;28;20080;-74
2022/12/07 04:34:48;;;;;;;8.70;8.40;;;1.70;99.90;;;;;;5031601;28;20076;-73
2022/12/07 04:37:14;;;;;;;8.73;8.43;;;1.80;99.90;;;;;;5020003;28;20038;-73
2022/12/07 04:39:40;;;;;;;9.23;8.93;;;1.90;99.90;;;;;;5031303;28;20033;-73
2022/12/07 04:42:05;;;;;;;11.07;10.68;;;1.80;99.90;;;;;;5019933;28;20033;-74
2022/12/07 04:44:31;;;;;;;9.10;8.80;;;1.80;99.90;;;;;;5012361;28;20072;-74
2022/12/07 04:46:57;;;;;;;9.73;9.38;;;1.70;99.90;;;;;;5024474;28;20026;-74
2022/12/07 04:49:23;;;;;;;8.90;8.60;;;1.60;99.90;;;;;;5012233;28;20022;-73
2022/12/07 04:51:49;;;;;;;10.10;9.70;;;1.70;99.90;;;;;;5012174;28;20065;-74
2022/12/07 04:54:15;;;;;;;9.00;8.70;;;1.70;99.90;;;;;;5025105;28;20496;-74
2022/12/07 04:56:41;;;;;;;9.73;9.43;;;1.80;99.90;;;;;;5024458;28;20105;-75
2022/12/07 04:59:07;;;;;;;10.63;10.23;;;1.80;99.90;;;;;;5018543;28;20061;-74
2022/12/07 05:01:33;;;;;;;12.43;11.90;;;1.70;99.90;;;;;;5019807;28;20555;-75
2022/12/07 05:03:59;;;;;;;11.68;11.27;;;1.70;99.90;;;;;;5031135;28;20053;-75
2022/12/07 05:06:25;;;;;;;9.40;9.05;;;1.70;99.90;;;;;;5019502;28;20070;-76
2022/12/07 05:08:51;;;;;;;9.07;8.77;;;1.70;99.90;;;;;;5017831;28;20037;-76
2022/12/07 05:14:02;;;;;;;9.95;9.60;;;1.70;99.90;;;;;;5008629;28;20036;-74
2022/12/07 05:16:28;;;;;;;9.57;9.27;;;1.70;99.90;;;;;;5030186;28;20029;-73
2022/12/07 05:18:54;;;;;;;13.93;13.18;;;1.80;99.90;;;;;;5022985;28;20029;-76
2022/12/07 05:21:20;;;;;;;9.15;8.85;;;1.80;99.90;;;;;;5025254;28;20064;-75
2022/12/07 05:23:45;;;;;;;8.35;8.05;;;1.70;99.90;;;;;;5020590;28;20032;-74
2022/12/07 05:26:11;;;;;;;10.18;9.80;;;1.80;99.90;;;;;;5016973;28;20053;-75
2022/12/07 05:28:36;;;;;;;9.70;9.32;;;1.80;99.90;;;;;;5031479;28;20386;-74
2022/12/07 05:31:03;;;;;;;8.80;8.50;;;1.80;99.90;;;;;;5017131;28;20471;-75
2022/12/07 05:33:28;;;;;;;9.27;8.98;;;1.80;99.90;;;;;;5023341;28;20524;-74
2022/12/07 05:35:54;;;;;;;9.45;9.15;;;1.70;99.90;;;;;;5025023;28;20061;-75
2022/12/07 05:38:19;;;;;;;9.48;9.18;;;1.70;99.90;;;;;;5019884;28;20037;-75
2022/12/07 05:40:45;;;;;;;9.13;8.82;;;1.60;99.90;;;;;;5016992;28;20026;-74
2022/12/07 05:43:10;;;;;;;17.13;16.05;;;1.60;99.90;;;;;;5031355;28;20041;-75
2022/12/07 05:45:36;;;;;;;8.90;8.60;;;1.50;99.90;;;;;;5017003;28;20018;-75
2022/12/07 05:48:01;;;;;;;12.13;11.63;;;1.60;99.90;;;;;;5023388;28;20034;-75
2022/12/07 05:50:28;;;;;;;11.30;10.90;;;1.50;99.90;;;;;;5023800;28;20017;-75
2022/12/07 05:52:53;;;;;;;8.60;8.30;;;1.50;99.90;;;;;;5011876;28;20026;-75
2022/12/07 05:55:19;;;;;;;9.27;8.98;;;1.60;99.90;;;;;;5011540;28;20030;-75
2022/12/07 05:59:22;;;;;;;9.68;9.27;;;1.50;99.90;;;;;;5019398;28;20542;-75
2022/12/07 06:00:30;;;;;;;9.93;9.63;;;1.60;99.90;;;;;;5018003;28;20036;-75
2022/12/07 06:02:55;;;;;;;9.48;9.18;;;1.50;99.90;;;;;;5019674;28;20022;-75
2022/12/07 06:05:21;;;;;;;8.77;8.48;;;1.50;99.90;;;;;;5022249;28;20036;-75
2022/12/07 06:07:47;;;;;;;9.65;9.35;;;1.50;99.90;;;;;;5020169;28;20057;-75
2022/12/07 06:10:12;;;;;;;11.25;10.85;;;1.50;99.90;;;;;;5021879;28;20033;-75
2022/12/07 06:12:39;;;;;;;12.57;11.90;;;1.50;99.90;;;;;;5017726;28;20033;-75
2022/12/07 06:15:05;;;;;;;10.02;9.68;;;1.40;99.90;;;;;;5014449;28;20033;-75
2022/12/07 06:17:31;;;;;;;13.02;12.30;;;1.50;99.90;;;;;;5019628;28;20037;-75
2022/12/07 06:19:57;;;;;;;10.57;10.18;;;1.50;99.90;;;;;;5024135;28;20022;-75
2022/12/07 06:22:22;;;;;;;8.65;8.35;;;1.50;99.90;;;;;;5019929;28;20022;-75
2022/12/07 06:24:48;;;;;;;13.23;12.50;;;1.50;99.90;;;;;;5020735;28;20021;-75
2022/12/07 06:27:13;;;;;;;15.60;14.73;;;1.60;99.90;;;;;;5024906;28;20036;-75
2022/12/07 06:29:39;;;;;;;12.70;11.98;;;1.60;99.90;;;;;;5028243;28;20129;-75
2022/12/07 06:32:05;;;;;;;9.40;9.10;;;1.60;99.90;;;;;;5022958;28;20120;-75
2022/12/07 06:34:30;;;;;;;12.32;11.77;;;1.60;99.90;;;;;;5021148;28;20033;-75
2022/12/07 06:36:56;;;;;;;10.20;9.80;;;1.60;99.90;;;;;;5023465;28;20484;-75
2022/12/07 06:39:24;;;;;;;8.43;8.13;;;1.60;99.90;;;;;;5026552;28;20464;-75
2022/12/07 06:41:53;;;;;;;11.27;10.75;;;1.60;99.90;;;;;;5024544;28;20072;-76
2022/12/07 06:44:20;;;;;;;10.00;9.68;;;1.60;99.90;;;;;;5030585;28;20026;-76
2022/12/07 06:46:46;;;;;;;8.20;7.90;;;1.70;99.90;;;;;;5025031;28;20041;-75
2022/12/07 06:49:12;;;;;;;10.95;10.45;;;1.70;99.90;;;;;;5021020;28;20108;-74
2022/12/07 06:51:41;;;;;;;11.32;10.93;;;1.70;99.90;;;;;;5023894;28;20117;-75
2022/12/07 06:54:11;;;;;;;10.57;10.15;;;1.70;99.90;;;;;;5014495;28;20026;-75
2022/12/07 06:56:37;;;;;;;9.13;8.73;;;1.80;99.90;;;;;;5026105;28;20029;-76
2022/12/07 06:59:05;;;;;;;10.10;9.65;;;1.70;99.90;;;;;;5014206;28;20108;-74
2022/12/07 07:01:30;;;;;;;9.55;9.25;;;1.70;99.90;;;;;;5024896;28;20561;-75
2022/12/07 07:03:56;;;;;;;10.60;10.20;;;1.70;99.90;;;;;;5014237;28;20025;-75
2022/12/07 07:06:22;;;;;;;9.77;9.48;;;1.70;99.90;;;;;;5024502;28;20394;-75
2022/12/07 07:08:47;;;;;;;9.80;9.50;;;1.80;99.90;;;;;;5015425;28;20021;-75
2022/12/07 07:11:13;;;;;;;9.60;9.30;;;1.80;99.90;;;;;;5014073;28;20030;-75
2022/12/07 07:13:39;;;;;;;10.35;9.95;;;1.70;99.90;;;;;;5019879;28;20029;-75
2022/12/07 07:16:05;;;;;;;9.98;9.65;;;1.80;99.90;;;;;;5013468;28;20100;-75
2022/12/07 07:18:30;;;;;;;10.35;9.95;;;1.80;99.90;;;;;;5013646;28;20646;-75
2022/12/07 07:20:56;;;;;;;11.43;10.98;;;1.90;99.90;;;;;;5013975;28;20029;-75
2022/12/07 07:23:22;;;;;;;11.93;11.38;;;1.80;99.90;;;;;;5013802;28;20391;-75
2022/12/07 07:25:48;;;;;;;9.85;9.55;;;1.80;99.90;;;;;;5012521;28;20025;-75
2022/12/07 07:28:15;;;;;;;9.77;9.48;;;1.80;99.90;;;;;;5026858;28;20336;-75
2022/12/07 07:30:40;;;;;;;12.35;11.70;;;1.80;99.90;;;;;;5013868;28;20515;-75
2022/12/07 07:33:06;;;;;;;12.60;11.77;;;1.90;99.90;;;;;;5013761;28;20119;-74
2022/12/07 07:35:33;;;;;;;9.30;9.00;;;1.90;99.90;;;;;;5011402;28;20050;-76
2022/12/07 07:37:59;;;;;;;12.38;11.88;;;1.90;99.90;;;;;;5017387;28;20030;-75
2022/12/07 07:40:25;;;;;;;10.15;9.75;;;1.90;99.90;;;;;;5033491;28;20103;-76
2022/12/07 07:42:53;;;;;;;11.27;10.68;;;1.90;99.90;;;;;;5013987;28;20026;-76
2022/12/07 07:45:20;;;;;;;16.27;13.20;;;1.90;99.90;;;;;;5013416;28;20022;-75
2022/12/07 07:47:45;;;;;;;17.40;16.10;;;1.90;99.90;;;;;;5017060;28;20092;-75
2022/12/07 07:50:11;;;;;;;14.20;13.32;;;1.90;99.90;;;;;;5020790;28;20038;-76
2022/12/07 07:52:37;;;;;;;9.52;9.23;;;2.00;99.90;;;;;;5013122;28;20480;-76
2022/12/07 07:55:03;;;;;;;13.63;12.93;;;2.00;99.90;;;;;;5011589;28;20030;-76
2022/12/07 07:57:28;;;;;;;12.00;11.32;;;1.90;99.90;;;;;;5031250;28;20036;-75
2022/12/07 07:59:54;;;;;;;17.27;15.93;;;1.90;99.90;;;;;;5031502;28;20037;-75
2022/12/07 08:02:20;;;;;;;10.07;9.70;;;1.90;99.90;;;;;;5012238;28;20026;-75
2022/12/07 08:04:46;;;;;;;9.25;8.95;;;2.00;99.90;;;;;;5012941;28;20033;-75
2022/12/07 08:07:12;;;;;;;8.77;8.48;;;2.00;99.90;;;;;;5012272;28;20025;-75
2022/12/07 08:09:38;;;;;;;14.75;14.00;;;2.00;99.90;;;;;;5011622;28;20032;-75
2022/12/07 08:12:04;;;;;;;9.07;8.68;;;2.00;99.90;;;;;;5012374;28;20105;-74
2022/12/07 08:14:30;;;;;;;13.10;12.32;;;2.00;99.90;;;;;;5011118;28;20659;-75
2022/12/07 08:16:56;;;;;;;9.70;9.40;;;2.00;99.90;;;;;;5031085;28;20112;-75
2022/12/07 08:19:21;;;;;;;11.13;10.63;;;2.00;99.90;;;;;;5018778;28;20388;-75
2022/12/07 08:21:47;;;;;;;10.00;9.68;;;2.00;99.90;;;;;;5012615;28;20396;-75
2022/12/07 08:24:13;;;;;;;17.42;16.13;;;2.10;99.90;;;;;;5011257;28;20116;-75
2022/12/07 08:26:39;;;;;;;11.82;11.38;;;2.00;99.90;;;;;;5031460;28;20022;-75
2022/12/07 08:29:05;;;;;;;10.95;10.13;;;2.10;99.90;;;;;;5031839;28;20044;-75
2022/12/07 08:31:31;;;;;;;11.57;11.10;;;2.10;99.90;;;;;;5017724;28;20079;-75
2022/12/07 08:33:57;;;;;;;10.88;10.48;;;2.10;99.90;;;;;;5018754;28;20029;-75
2022/12/07 08:36:23;;;;;;;10.98;10.57;;;2.10;99.90;;;;;;5018017;28;20025;-75
2022/12/07 08:38:48;;;;;;;10.30;9.90;;;2.20;99.90;;;;;;5019699;28;20033;-73
2022/12/07 08:41:15;;;;;;;13.20;12.57;;;2.20;99.90;;;;;;5030149;28;20032;-75
2022/12/07 08:43:40;;;;;;;11.15;10.75;;;2.20;99.90;;;;;;5019962;28;20028;-75
2022/12/07 08:46:23;;;;;;;13.57;12.98;;;2.20;99.90;;;;;;5031007;28;20100;-76
2022/12/07 08:49:15;;;;;;;12.05;11.45;;;2.20;99.90;;;;;;5015843;28;20026;-74
2022/12/07 08:51:41;;;;;;;10.50;10.07;;;2.30;99.90;;;;;;5018873;28;20590;-75
2022/12/07 08:54:11;;;;;;;12.02;11.45;;;2.20;99.90;;;;;;5014120;28;20108;-75
2022/12/07 08:56:37;;;;;;;10.82;10.40;;;2.20;99.90;;;;;;5011938;28;20030;-75
2022/12/07 08:59:04;;;;;;;9.35;9.05;;;2.20;99.90;;;;;;5010324;28;20164;-72
2022/12/07 09:01:30;;;;;;;11.73;11.23;;;2.20;99.90;;;;;;5011843;28;20105;-75
2022/12/07 09:03:55;;;;;;;13.25;12.65;;;2.20;99.90;;;;;;5017366;28;20105;-75
2022/12/07 09:06:21;;;;;;;14.23;12.88;;;2.20;99.90;;;;;;5018301;28;20480;-75
2022/12/07 09:08:51;;;;;;;10.38;10.00;;;2.20;99.90;;;;;;5023308;28;20791;-76
2022/12/07 09:11:16;;;;;;;17.40;16.30;;;2.20;99.90;;;;;;5023772;28;20052;-76
2022/12/07 09:13:42;;;;;;;20.25;18.55;;;2.20;99.90;;;;;;5011647;28;20479;-74
2022/12/07 09:16:07;;;;;;;21.08;19.42;;;2.30;99.90;;;;;;5012023;28;20112;-74
2022/12/07 09:18:33;;;;;;;15.05;13.93;;;2.50;99.90;;;;;;5011708;28;20390;-74
2022/12/07 09:20:58;;;;;;;9.77;9.27;;;2.30;99.90;;;;;;5011971;28;20033;-75
2022/12/07 09:23:24;;;;;;;8.77;8.48;;;2.30;99.90;;;;;;5023983;28;20476;-75
2022/12/07 09:25:50;;;;;;;9.75;9.35;;;2.40;99.90;;;;;;5023934;28;20072;-75
2022/12/07 09:28:16;;;;;;;9.15;8.68;;;2.40;99.90;;;;;;5026185;28;20030;-75
2022/12/07 09:30:48;;;;;;;10.80;10.40;;;2.40;99.90;;;;;;5011906;28;20026;-75
2022/12/07 09:33:14;;;;;;;10.20;9.80;;;2.40;99.90;;;;;;5017924;28;20030;-76
2022/12/07 09:35:47;;;;;;;12.85;12.30;;;2.40;99.90;;;;;;5017579;28;20112;-74
2022/12/07 09:38:13;;;;;;;9.88;9.57;;;2.40;99.90;;;;;;5005354;28;20042;-75
2022/12/07 09:40:40;;;;;;;11.88;11.25;;;2.40;99.90;;;;;;5018216;28;20026;-75
2022/12/07 09:43:20;;;;;;;11.45;10.95;;;2.40;99.90;;;;;;5024644;28;20113;-75
2022/12/07 09:45:48;;;;;;;10.52;10.13;;;2.40;99.90;;;;;;5011724;28;20018;-76
2022/12/07 09:48:31;;;;;;;12.45;11.93;;;2.50;99.90;;;;;;5020730;28;20018;-76
2022/12/07 09:50:58;;;;;;;9.00;8.60;;;2.50;99.90;;;;;;5025697;28;20018;-75
2022/12/07 09:53:34;;;;;;;9.55;9.15;;;2.50;99.90;;;;;;5011737;28;20062;-75
2022/12/07 09:56:00;;;;;;;11.70;10.68;;;2.60;99.90;;;;;;5005556;28;20025;-75
2022/12/07 09:58:29;;;;;;;10.25;9.85;;;2.60;99.90;;;;;;5018815;28;20124;-75
2022/12/07 10:01:10;;;;;;;8.88;8.57;;;2.50;99.90;;;;;;5008341;28;20090;-76
2022/12/07 10:03:38;;;;;;;11.07;10.60;;;2.60;99.90;;;;;;5027560;28;20076;-75
2022/12/07 10:06:05;;;;;;;8.93;8.52;;;2.60;99.90;;;;;;5023323;28;20127;-76
2022/12/07 10:08:31;;;;;;;10.45;9.73;;;2.60;99.90;;;;;;5031865;28;20029;-75
2022/12/07 10:10:58;;;;;;;11.75;11.15;;;2.70;99.90;;;;;;5015506;28;20542;-76
2022/12/07 10:13:38;;;;;;;9.00;8.70;;;2.70;99.90;;;;;;5014650;28;20026;-75
2022/12/07 10:16:04;;;;;;;10.73;10.23;;;2.70;99.90;;;;;;5027058;28;20037;-76
2022/12/07 10:18:36;;;;;;;9.60;9.10;;;2.80;99.90;;;;;;5022650;28;20025;-77
2022/12/07 10:21:07;;;;;;;9.70;9.30;;;2.70;99.90;;;;;;5024400;28;20029;-75
2022/12/07 10:23:34;;;;;;;9.88;9.52;;;2.80;99.90;;;;;;5037280;28;20075;-75
2022/12/07 10:26:36;;;;;;;9.32;8.77;;;2.80;99.90;;;;;;5021388;28;20053;-75
2022/12/07 10:29:19;;;;;;;9.73;9.40;;;2.90;99.90;;;;;;5014340;28;20391;-74
2022/12/07 10:31:55;;;;;;;9.50;9.13;;;2.80;99.90;;;;;;5014165;28;20068;-75
2022/12/07 10:34:26;;;;;;;11.07;10.55;;;2.80;99.90;;;;;;5028006;28;20029;-75
2022/12/07 10:36:52;;;;;;;8.98;8.68;;;2.80;99.90;;;;;;5012900;28;20040;-75
2022/12/07 10:39:20;;;;;;;10.57;10.02;;;2.80;99.90;;;;;;5028745;28;20400;-75
2022/12/07 10:41:57;;;;;;;10.25;9.68;;;2.80;99.90;;;;;;5023842;28;20021;-75
2022/12/07 10:44:32;;;;;;;8.85;8.45;;;2.80;99.90;;;;;;5029042;28;20029;-75
2022/12/07 10:47:22;;;;;;;10.45;9.77;;;2.80;99.90;;;;;;5024452;28;20025;-75
2022/12/07 10:49:59;;;;;;;12.30;11.50;;;2.90;99.90;;;;;;5010524;28;20083;-75
2022/12/07 10:53:12;;;;;;;13.55;12.68;;;2.90;99.90;;;;;;5018659;28;20022;-75
2022/12/07 10:56:14;;;;;;;11.15;10.55;;;3.00;99.90;;;;;;4977965;28;20034;-75
2022/12/07 10:59:01;;;;;;;17.25;16.17;;;2.90;99.90;;;;;;5032048;28;20029;-75
2022/12/07 11:01:29;;;;;;;8.25;7.95;;;2.90;99.90;;;;;;5025587;28;20530;-75
2022/12/07 11:04:03;;;;;;;9.77;9.43;;;2.90;99.90;;;;;;5020836;28;20029;-75
2022/12/07 11:06:46;;;;;;;15.20;14.38;;;3.00;99.90;;;;;;5021203;28;20071;-75
2022/12/07 11:09:41;;;;;;;10.77;10.18;;;3.00;99.90;;;;;;5000787;28;20380;-75
2022/12/07 11:12:25;;;;;;;14.35;13.27;;;3.00;99.90;;;;;;5027148;28;20029;-76
2022/12/07 11:14:56;;;;;;;10.98;9.95;;;3.00;99.90;;;;;;5027272;28;20037;-75
2022/12/07 11:17:56;;;;;;;11.80;11.20;;;3.10;99.90;;;;;;5022697;28;20029;-75
2022/12/07 11:20:29;;;;;;;10.60;10.02;;;3.10;99.90;;;;;;5006236;28;20037;-75
2022/12/07 11:23:14;;;;;;;9.15;8.68;;;3.20;99.90;;;;;;5020348;28;20036;-75
2022/12/07 11:26:06;;;;;;;7.80;7.50;;;3.30;99.90;;;;;;5023343;28;20049;-76
2022/12/07 11:28:56;;;;;;;10.10;9.70;;;3.30;99.90;;;;;;5001093;28;20079;-75
2022/12/07 11:31:35;;;;;;;16.40;15.02;;;3.30;99.90;;;;;;5027205;28;20030;-76
2022/12/07 11:34:24;;;;;;;9.75;9.35;;;3.30;99.90;;;;;;5024931;28;20030;-75
2022/12/07 11:36:53;;;;;;;8.82;8.52;;;3.30;99.90;;;;;;5010758;28;20032;-75
2022/12/07 11:39:28;;;;;;;10.43;9.93;;;3.30;99.90;;;;;;5019300;28;20026;-76
2022/12/07 11:42:01;;;;;;;7.68;7.07;;;3.30;99.90;;;;;;5023142;28;20029;-76
2022/12/07 11:44:53;;;;;;;9.45;9.15;;;3.30;99.90;;;;;;5012781;28;20022;-76
2022/12/07 11:47:35;;;;;;;12.70;11.82;;;3.20;99.90;;;;;;5024848;28;20033;-75
2022/12/07 11:50:03;;;;;;;8.32;8.02;;;3.20;99.90;;;;;;5023510;28;20505;-75
2022/12/07 11:52:51;;;;;;;10.25;9.63;;;3.20;99.90;;;;;;5019965;28;20033;-75
2022/12/07 11:55:54;;;;;;;10.18;9.77;;;3.20;99.90;;;;;;5019809;28;20034;-75
2022/12/07 11:58:42;;;;;;;10.07;9.52;;;3.30;99.90;;;;;;5020606;28;20021;-75
2022/12/07 12:01:16;;;;;;;8.75;8.45;;;3.30;99.90;;;;;;5006315;28;20037;-75
2022/12/07 12:03:49;;;;;;;8.38;8.07;;;3.30;99.90;;;;;;5026493;28;20028;-75
2022/12/07 12:06:14;;;;;;;9.20;8.70;;;3.30;99.90;;;;;;5022412;28;20160;-75
2022/12/07 12:08:48;;;;;;;7.80;7.50;;;3.30;99.90;;;;;;5019572;28;20096;-76
2022/12/07 12:11:31;;;;;;;10.50;10.10;;;3.30;99.90;;;;;;5021305;28;20027;-75
2022/12/07 12:14:24;;;;;;;7.05;6.82;;;3.40;99.90;;;;;;5006694;28;20065;-75
2022/12/07 12:16:55;;;;;;;12.73;11.85;;;3.50;99.90;;;;;;5019288;28;20033;-75
2022/12/07 12:19:24;;;;;;;8.80;8.50;;;3.60;99.90;;;;;;5021082;28;20030;-75
2022/12/07 12:21:56;;;;;;;10.23;9.73;;;3.60;99.90;;;;;;5025405;28;20061;-75
2022/12/07 12:24:26;;;;;;;12.60;11.88;;;3.60;99.90;;;;;;5015726;28;20033;-76
2022/12/07 12:27:01;;;;;;;8.43;7.95;;;3.70;99.90;;;;;;5006916;28;20099;-75
2022/12/07 12:29:32;;;;;;;8.85;8.45;;;3.70;99.90;;;;;;5019300;28;20479;-75
2022/12/07 12:32:06;;;;;;;10.18;9.52;;;3.70;99.90;;;;;;5021940;28;20038;-75
2022/12/07 12:34:46;;;;;;;10.50;9.90;;;3.70;99.90;;;;;;5025700;28;20030;-75
2022/12/07 12:37:40;;;;;;;7.22;6.78;;;3.70;99.90;;;;;;5016362;28;20511;-75
2022/12/07 12:40:15;;;;;;;8.40;8.10;;;3.60;99.90;;;;;;5010192;28;20156;-76
2022/12/07 12:42:58;;;;;;;14.23;13.50;;;3.60;99.90;;;;;;5017157;28;20029;-76
2022/12/07 12:45:26;;;;;;;8.13;7.75;;;3.50;99.90;;;;;;5018671;28;20113;-75
2022/12/07 12:47:59;;;;;;;7.07;6.88;;;3.50;99.90;;;;;;5012663;28;20018;-76
2022/12/07 12:50:39;;;;;;;9.27;8.85;;;3.50;99.90;;;;;;5025576;28;20030;-75
2022/12/07 12:53:21;;;;;;;7.93;7.63;;;3.50;99.90;;;;;;5021914;28;20060;-76
2022/12/07 12:56:02;;;;;;;9.10;8.73;;;3.50;99.90;;;;;;5018844;28;20414;-75
2022/12/07 12:58:39;;;;;;;8.70;8.30;;;3.50;99.90;;;;;;5017956;28;20088;-75
2022/12/07 13:01:35;;;;;;;7.40;7.13;;;3.50;99.90;;;;;;5020778;28;20472;-75
2022/12/07 13:04:04;;;;;;;6.80;6.50;;;3.50;99.90;;;;;;5012799;28;20536;-75
2022/12/07 13:06:38;;;;;;;6.72;6.43;;;3.50;99.90;;;;;;5010548;28;20030;-76
2022/12/07 13:09:04;;;;;;;6.38;6.18;;;3.50;99.90;;;;;;5006966;28;20448;-76
2022/12/07 13:11:44;;;;;;;6.20;6.00;;;3.40;99.90;;;;;;5029851;28;20104;-75